Main page
Satellite images 15-day forecastsClimateMarine weather Cyclones Lightning AirportsFAQ Newsletter About
Weather : Europe Africa North America South America Asia Australia-Oceania Others
Languages Contact

Bordeaux, France

Merignac

latitude: 44-50N, longitude: 000-42W, elevation: 49 m


METAR: LFBD 241430Z AUTO 13004KT 090V180 9999 NSC 21/07 Q1018
TAF: LFBD 241100Z 2412/2518 14005KT CAVOK TEMPO 2503/2508 MIFG BECMG 2512/2515 36010KT

Time: 16:40 (14:40 UTC)

Current weather observation

The report was made 10 minutes ago, at 14:30 UTC
Wind 4 kt from the Southeast, varying between East and South
Temperature 21°C
Humidity 40%
Pressure 1018 hPa
Visibility 10 km or more

Change units

Forecast

The report was made 3 hours and 40 minutes ago, at 11:00 UTC
Forecast valid from 24 at 12 UTC to 25 at 18 UTC
Wind 5 kt from the Southeast
Visibility 10 km or more
no clouds below 1500 m and no cumulonimbus
Temporary
from 25 at 03 UTC to 25 at 08 UTC
shallow fog
Becoming
from 25 at 12 UTC to 25 at 15 UTC
Wind 10 kt from the North
The information on this site is subject to a disclaimer
Weather : Europe Africa North America South America Asia Australia-Oceania Others
Satellite images 15-day forecastsClimateMarine weather Cyclones Lightning AirportsFAQ Languages Contact Newsletter About